sensor_id;sensor_type;location;lat;lon;timestamp;pressure;altitude;pressure_sealevel;temperature;humidity
62402;BME280;48440;51.224;22.506;2023-04-27T00:02:24;99104.56;;;7.10;56.07
62402;BME280;48440;51.224;22.506;2023-04-27T00:04:49;99103.16;;;7.08;55.77
62402;BME280;48440;51.224;22.506;2023-04-27T00:07:15;99107.16;;;7.05;55.99
62402;BME280;48440;51.224;22.506;2023-04-27T00:09:43;99112.91;;;7.09;56.17
62402;BME280;48440;51.224;22.506;2023-04-27T00:12:24;99112.66;;;7.10;56.43
62402;BME280;48440;51.224;22.506;2023-04-27T00:14:49;99113.50;;;7.11;56.25
62402;BME280;48440;51.224;22.506;2023-04-27T00:17:26;99111.50;;;7.06;56.09
62402;BME280;48440;51.224;22.506;2023-04-27T00:19:52;99109.84;;;7.05;56.34
62402;BME280;48440;51.224;22.506;2023-04-27T00:22:17;99112.56;;;7.05;56.23
62402;BME280;48440;51.224;22.506;2023-04-27T00:24:43;99113.03;;;7.02;56.58
62402;BME280;48440;51.224;22.506;2023-04-27T00:27:08;99116.22;;;6.99;56.66
62402;BME280;48440;51.224;22.506;2023-04-27T00:29:38;99118.09;;;6.99;56.39
62402;BME280;48440;51.224;22.506;2023-04-27T00:32:12;99112.13;;;6.97;56.31
62402;BME280;48440;51.224;22.506;2023-04-27T00:34:53;99113.53;;;6.99;56.64
62402;BME280;48440;51.224;22.506;2023-04-27T00:37:24;99113.53;;;6.99;56.99
62402;BME280;48440;51.224;22.506;2023-04-27T00:39:52;99116.94;;;6.95;56.80
62402;BME280;48440;51.224;22.506;2023-04-27T00:42:18;99110.72;;;6.94;56.60
62402;BME280;48440;51.224;22.506;2023-04-27T00:44:47;99111.16;;;6.91;56.83
62402;BME280;48440;51.224;22.506;2023-04-27T00:47:13;99110.59;;;6.89;57.00
62402;BME280;48440;51.224;22.506;2023-04-27T00:49:39;99110.81;;;6.88;56.87
62402;BME280;48440;51.224;22.506;2023-04-27T00:52:05;99116.44;;;6.86;56.58
62402;BME280;48440;51.224;22.506;2023-04-27T00:54:30;99113.03;;;6.79;56.71
62402;BME280;48440;51.224;22.506;2023-04-27T00:56:56;99109.91;;;6.70;57.24
62402;BME280;48440;51.224;22.506;2023-04-27T00:59:22;99110.94;;;6.69;56.68
62402;BME280;48440;51.224;22.506;2023-04-27T01:01:48;99103.78;;;6.63;57.06
62402;BME280;48440;51.224;22.506;2023-04-27T01:04:16;99114.44;;;6.58;57.49
62402;BME280;48440;51.224;22.506;2023-04-27T01:06:44;99106.22;;;6.53;57.35
62402;BME280;48440;51.224;22.506;2023-04-27T01:09:17;99109.66;;;6.49;57.34
62402;BME280;48440;51.224;22.506;2023-04-27T01:11:55;99110.69;;;6.47;57.34
62402;BME280;48440;51.224;22.506;2023-04-27T01:14:30;99119.25;;;6.44;57.27
62402;BME280;48440;51.224;22.506;2023-04-27T01:16:56;99121.34;;;6.42;57.33
62402;BME280;48440;51.224;22.506;2023-04-27T01:19:34;99119.56;;;6.36;57.55
62402;BME280;48440;51.224;22.506;2023-04-27T01:22:00;99125.75;;;6.25;57.66
62402;BME280;48440;51.224;22.506;2023-04-27T01:24:25;99130.31;;;6.25;57.88
62402;BME280;48440;51.224;22.506;2023-04-27T01:26:51;99130.44;;;6.18;57.72
62402;BME280;48440;51.224;22.506;2023-04-27T01:29:26;99129.16;;;6.21;57.55
62402;BME280;48440;51.224;22.506;2023-04-27T01:31:52;99138.38;;;6.13;57.65
62402;BME280;48440;51.224;22.506;2023-04-27T01:34:17;99136.75;;;6.12;57.84
62402;BME280;48440;51.224;22.506;2023-04-27T01:36:43;99138.03;;;6.09;58.04
62402;BME280;48440;51.224;22.506;2023-04-27T01:39:11;99139.75;;;6.04;57.92
62402;BME280;48440;51.224;22.506;2023-04-27T01:41:37;99142.00;;;6.07;58.31
62402;BME280;48440;51.224;22.506;2023-04-27T01:44:02;99140.13;;;6.07;58.03
62402;BME280;48440;51.224;22.506;2023-04-27T01:46:30;99147.59;;;6.05;57.96
62402;BME280;48440;51.224;22.506;2023-04-27T01:48:56;99148.28;;;6.01;58.27
62402;BME280;48440;51.224;22.506;2023-04-27T01:51:21;99149.56;;;5.98;58.06
62402;BME280;48440;51.224;22.506;2023-04-27T01:53:47;99147.59;;;5.94;58.19
62402;BME280;48440;51.224;22.506;2023-04-27T01:56:12;99157.31;;;5.95;57.90
62402;BME280;48440;51.224;22.506;2023-04-27T01:58:40;99154.84;;;5.93;58.04
62402;BME280;48440;51.224;22.506;2023-04-27T02:01:08;99157.34;;;5.88;58.25
62402;BME280;48440;51.224;22.506;2023-04-27T02:03:38;99158.03;;;5.84;58.84
62402;BME280;48440;51.224;22.506;2023-04-27T02:09:29;99156.63;;;5.81;58.90
62402;BME280;48440;51.224;22.506;2023-04-27T02:11:54;99157.88;;;5.78;58.83
62402;BME280;48440;51.224;22.506;2023-04-27T02:17:35;99154.69;;;5.70;58.84
62402;BME280;48440;51.224;22.506;2023-04-27T02:20:10;99159.28;;;5.69;58.95
62402;BME280;48440;51.224;22.506;2023-04-27T02:22:42;99153.66;;;5.71;58.63
62402;BME280;48440;51.224;22.506;2023-04-27T02:25:16;99158.28;;;5.64;58.64
62402;BME280;48440;51.224;22.506;2023-04-27T02:27:52;99158.06;;;5.65;58.59
62402;BME280;48440;51.224;22.506;2023-04-27T02:30:18;99157.47;;;5.63;58.58
62402;BME280;48440;51.224;22.506;2023-04-27T02:32:43;99157.91;;;5.60;58.77
62402;BME280;48440;51.224;22.506;2023-04-27T02:35:09;99156.72;;;5.56;59.30
62402;BME280;48440;51.224;22.506;2023-04-27T02:37:35;99157.41;;;5.52;58.83
62402;BME280;48440;51.224;22.506;2023-04-27T02:40:00;99173.75;;;5.50;58.89
62402;BME280;48440;51.224;22.506;2023-04-27T02:42:26;99164.88;;;5.50;59.46
62402;BME280;48440;51.224;22.506;2023-04-27T02:44:51;99161.56;;;5.47;59.07
62402;BME280;48440;51.224;22.506;2023-04-27T02:47:17;99166.13;;;5.47;59.03
62402;BME280;48440;51.224;22.506;2023-04-27T02:49:42;99162.72;;;5.40;59.08
62402;BME280;48440;51.224;22.506;2023-04-27T02:52:08;99166.84;;;5.42;59.32
62402;BME280;48440;51.224;22.506;2023-04-27T02:54:34;99166.25;;;5.40;59.31
62402;BME280;48440;51.224;22.506;2023-04-27T02:56:59;99173.72;;;5.38;59.19
62402;BME280;48440;51.224;22.506;2023-04-27T02:59:25;99164.59;;;5.39;59.19
62402;BME280;48440;51.224;22.506;2023-04-27T03:01:50;99162.13;;;5.38;59.28
62402;BME280;48440;51.224;22.506;2023-04-27T03:04:16;99172.06;;;5.37;59.00
62402;BME280;48440;51.224;22.506;2023-04-27T03:06:42;99167.72;;;5.36;58.94
62402;BME280;48440;51.224;22.506;2023-04-27T03:09:07;99178.72;;;5.35;59.02
62402;BME280;48440;51.224;22.506;2023-04-27T03:11:36;99181.47;;;5.28;59.29
62402;BME280;48440;51.224;22.506;2023-04-27T03:14:02;99175.88;;;5.30;59.00
62402;BME280;48440;51.224;22.506;2023-04-27T03:16:30;99177.34;;;5.26;59.54
62402;BME280;48440;51.224;22.506;2023-04-27T03:18:56;99183.19;;;5.23;59.11
62402;BME280;48440;51.224;22.506;2023-04-27T03:21:21;99184.81;;;5.24;59.37
62402;BME280;48440;51.224;22.506;2023-04-27T03:23:46;99184.53;;;5.14;59.70
62402;BME280;48440;51.224;22.506;2023-04-27T03:26:13;99178.78;;;5.10;60.02
62402;BME280;48440;51.224;22.506;2023-04-27T03:28:39;99184.38;;;5.08;59.93
62402;BME280;48440;51.224;22.506;2023-04-27T03:31:09;99188.66;;;5.16;59.74
62402;BME280;48440;51.224;22.506;2023-04-27T03:33:36;99191.78;;;5.13;59.95
62402;BME280;48440;51.224;22.506;2023-04-27T03:36:03;99187.59;;;5.17;59.59
62402;BME280;48440;51.224;22.506;2023-04-27T03:38:29;99190.19;;;5.24;59.75
62402;BME280;48440;51.224;22.506;2023-04-27T03:40:55;99194.16;;;5.21;59.29
62402;BME280;48440;51.224;22.506;2023-04-27T03:43:23;99201.66;;;5.19;59.94
62402;BME280;48440;51.224;22.506;2023-04-27T03:45:49;99201.06;;;5.17;59.87
62402;BME280;48440;51.224;22.506;2023-04-27T03:48:15;99199.84;;;5.13;59.61
62402;BME280;48440;51.224;22.506;2023-04-27T03:50:44;99202.31;;;5.15;59.96
62402;BME280;48440;51.224;22.506;2023-04-27T03:53:11;99202.91;;;5.17;59.78
62402;BME280;48440;51.224;22.506;2023-04-27T03:55:37;99208.97;;;5.12;59.91
62402;BME280;48440;51.224;22.506;2023-04-27T03:58:03;99214.13;;;5.14;59.61
62402;BME280;48440;51.224;22.506;2023-04-27T04:00:28;99217.19;;;5.17;59.65
62402;BME280;48440;51.224;22.506;2023-04-27T04:02:55;99223.19;;;5.19;59.99
62402;BME280;48440;51.224;22.506;2023-04-27T04:05:21;99224.56;;;5.22;60.06
62402;BME280;48440;51.224;22.506;2023-04-27T04:07:46;99225.78;;;5.26;60.03
62402;BME280;48440;51.224;22.506;2023-04-27T04:10:11;99228.63;;;5.31;60.04
62402;BME280;48440;51.224;22.506;2023-04-27T04:12:37;99228.41;;;5.32;60.14
62402;BME280;48440;51.224;22.506;2023-04-27T04:15:05;99223.03;;;5.32;60.30
62402;BME280;48440;51.224;22.506;2023-04-27T04:17:32;99231.28;;;5.37;60.21
62402;BME280;48440;51.224;22.506;2023-04-27T04:19:58;99236.72;;;5.31;59.84
62402;BME280;48440;51.224;22.506;2023-04-27T04:22:24;99239.56;;;5.36;60.15
62402;BME280;48440;51.224;22.506;2023-04-27T04:24:49;99237.91;;;5.35;59.98
62402;BME280;48440;51.224;22.506;2023-04-27T04:27:15;99235.59;;;5.38;60.17
62402;BME280;48440;51.224;22.506;2023-04-27T04:29:43;99244.66;;;5.44;59.92
62402;BME280;48440;51.224;22.506;2023-04-27T04:32:08;99241.28;;;5.49;60.07
62402;BME280;48440;51.224;22.506;2023-04-27T04:34:41;99244.97;;;5.54;60.02
62402;BME280;48440;51.224;22.506;2023-04-27T04:37:07;99250.13;;;5.56;60.10
62402;BME280;48440;51.224;22.506;2023-04-27T04:39:32;99250.22;;;5.67;60.14
62402;BME280;48440;51.224;22.506;2023-04-27T04:42:00;99258.41;;;5.72;59.79
62402;BME280;48440;51.224;22.506;2023-04-27T04:44:27;99257.41;;;5.92;59.49
62402;BME280;48440;51.224;22.506;2023-04-27T04:46:53;99262.13;;;5.96;58.99
62402;BME280;48440;51.224;22.506;2023-04-27T04:49:19;99256.56;;;6.09;58.60
62402;BME280;48440;51.224;22.506;2023-04-27T04:51:45;99261.31;;;6.26;58.45
62402;BME280;48440;51.224;22.506;2023-04-27T04:54:10;99260.72;;;6.54;58.08
62402;BME280;48440;51.224;22.506;2023-04-27T04:56:53;99260.00;;;6.88;57.08
62402;BME280;48440;51.224;22.506;2023-04-27T04:59:21;99259.91;;;6.95;56.29
62402;BME280;48440;51.224;22.506;2023-04-27T05:01:54;99265.47;;;7.23;55.79
62402;BME280;48440;51.224;22.506;2023-04-27T05:04:20;99268.84;;;7.42;55.63
62402;BME280;48440;51.224;22.506;2023-04-27T05:06:48;99262.63;;;7.65;55.31
62402;BME280;48440;51.224;22.506;2023-04-27T05:09:13;99259.34;;;7.74;54.79
62402;BME280;48440;51.224;22.506;2023-04-27T05:11:39;99273.50;;;7.93;54.29
62402;BME280;48440;51.224;22.506;2023-04-27T05:14:07;99280.03;;;8.09;53.56
62402;BME280;48440;51.224;22.506;2023-04-27T05:16:32;99272.16;;;8.19;52.84
62402;BME280;48440;51.224;22.506;2023-04-27T05:18:58;99269.97;;;8.44;53.66
62402;BME280;48440;51.224;22.506;2023-04-27T05:21:23;99277.22;;;8.56;52.85
62402;BME280;48440;51.224;22.506;2023-04-27T05:23:49;99280.06;;;8.77;52.60
62402;BME280;48440;51.224;22.506;2023-04-27T05:26:17;99288.16;;;8.77;52.29
62402;BME280;48440;51.224;22.506;2023-04-27T05:28:43;99283.44;;;9.01;50.95
62402;BME280;48440;51.224;22.506;2023-04-27T05:31:08;99280.50;;;9.19;50.70
62402;BME280;48440;51.224;22.506;2023-04-27T05:33:34;99284.19;;;9.30;50.10
62402;BME280;48440;51.224;22.506;2023-04-27T05:36:00;99296.66;;;9.48;50.53
62402;BME280;48440;51.224;22.506;2023-04-27T05:38:25;99299.91;;;9.67;49.52
62402;BME280;48440;51.224;22.506;2023-04-27T05:40:57;99306.81;;;9.74;49.70
62402;BME280;48440;51.224;22.506;2023-04-27T05:43:23;99304.53;;;9.88;49.54
62402;BME280;48440;51.224;22.506;2023-04-27T05:45:49;99303.78;;;9.93;48.06
62402;BME280;48440;51.224;22.506;2023-04-27T05:48:15;99305.59;;;10.04;49.06
62402;BME280;48440;51.224;22.506;2023-04-27T05:50:46;99305.25;;;10.39;49.44
62402;BME280;48440;51.224;22.506;2023-04-27T05:53:11;99314.56;;;10.48;49.00
62402;BME280;48440;51.224;22.506;2023-04-27T05:55:37;99309.47;;;10.51;47.78
62402;BME280;48440;51.224;22.506;2023-04-27T05:58:03;99307.22;;;10.70;48.06
62402;BME280;48440;51.224;22.506;2023-04-27T06:00:29;99312.91;;;10.96;46.07
62402;BME280;48440;51.224;22.506;2023-04-27T06:02:54;99311.16;;;11.11;45.78
62402;BME280;48440;51.224;22.506;2023-04-27T06:05:22;99312.38;;;11.26;45.95
62402;BME280;48440;51.224;22.506;2023-04-27T06:07:48;99316.06;;;11.46;46.03
62402;BME280;48440;51.224;22.506;2023-04-27T06:10:14;99324.03;;;11.58;45.93
62402;BME280;48440;51.224;22.506;2023-04-27T06:12:40;99314.91;;;11.74;45.83
62402;BME280;48440;51.224;22.506;2023-04-27T06:15:06;99312.59;;;11.88;44.92
62402;BME280;48440;51.224;22.506;2023-04-27T06:17:35;99315.94;;;12.05;44.08
62402;BME280;48440;51.224;22.506;2023-04-27T06:20:00;99321.44;;;12.15;42.55
62402;BME280;48440;51.224;22.506;2023-04-27T06:22:26;99326.63;;;12.22;42.47
62402;BME280;48440;51.224;22.506;2023-04-27T06:24:52;99324.00;;;12.37;41.71
62402;BME280;48440;51.224;22.506;2023-04-27T06:27:32;99326.22;;;12.50;41.87
62402;BME280;48440;51.224;22.506;2023-04-27T06:30:14;99327.38;;;12.65;40.98
62402;BME280;48440;51.224;22.506;2023-04-27T06:32:42;99339.66;;;12.72;39.49
62402;BME280;48440;51.224;22.506;2023-04-27T06:35:08;99331.25;;;12.89;41.02
62402;BME280;48440;51.224;22.506;2023-04-27T06:37:34;99334.78;;;13.00;42.09
62402;BME280;48440;51.224;22.506;2023-04-27T06:40:00;99321.19;;;13.05;38.91
62402;BME280;48440;51.224;22.506;2023-04-27T06:42:26;99332.69;;;13.17;37.86
62402;BME280;48440;51.224;22.506;2023-04-27T06:47:36;99335.41;;;13.52;38.47
62402;BME280;48440;51.224;22.506;2023-04-27T06:50:04;99330.78;;;13.68;39.31
62402;BME280;48440;51.224;22.506;2023-04-27T06:52:33;99334.56;;;13.87;38.34
62402;BME280;48440;51.224;22.506;2023-04-27T06:55:10;99337.56;;;14.01;36.34
62402;BME280;48440;51.224;22.506;2023-04-27T06:57:56;99326.88;;;14.15;37.42
62402;BME280;48440;51.224;22.506;2023-04-27T07:00:27;99334.50;;;14.18;35.79
62402;BME280;48440;51.224;22.506;2023-04-27T07:02:52;99336.63;;;14.41;35.75
62402;BME280;48440;51.224;22.506;2023-04-27T07:05:21;99336.63;;;14.31;34.81
62402;BME280;48440;51.224;22.506;2023-04-27T07:07:47;99338.53;;;14.46;34.72
62402;BME280;48440;51.224;22.506;2023-04-27T07:10:16;99335.53;;;14.42;35.41
62402;BME280;48440;51.224;22.506;2023-04-27T07:12:48;99335.75;;;14.56;36.32
62402;BME280;48440;51.224;22.506;2023-04-27T07:15:16;99342.81;;;14.62;34.73
62402;BME280;48440;51.224;22.506;2023-04-27T07:17:46;99337.31;;;14.72;34.78
62402;BME280;48440;51.224;22.506;2023-04-27T07:20:16;99353.38;;;14.84;34.82
62402;BME280;48440;51.224;22.506;2023-04-27T07:22:54;99343.50;;;14.88;34.58
62402;BME280;48440;51.224;22.506;2023-04-27T07:25:33;99347.22;;;15.07;34.48
62402;BME280;48440;51.224;22.506;2023-04-27T07:28:31;99340.91;;;15.12;34.41
62402;BME280;48440;51.224;22.506;2023-04-27T07:31:10;99347.13;;;15.22;35.24
62402;BME280;48440;51.224;22.506;2023-04-27T07:33:44;99333.91;;;15.35;34.60
62402;BME280;48440;51.224;22.506;2023-04-27T07:36:11;99335.22;;;15.42;33.99
62402;BME280;48440;51.224;22.506;2023-04-27T07:38:40;99342.31;;;15.43;33.75
62402;BME280;48440;51.224;22.506;2023-04-27T07:51:48;99340.66;;;16.10;33.96
62402;BME280;48440;51.224;22.506;2023-04-27T07:54:26;99340.06;;;16.13;33.03
62402;BME280;48440;51.224;22.506;2023-04-27T07:57:04;99330.34;;;16.26;32.36
62402;BME280;48440;51.224;22.506;2023-04-27T07:59:37;99332.47;;;16.34;31.66
62402;BME280;48440;51.224;22.506;2023-04-27T08:02:10;99338.63;;;16.45;32.67
62402;BME280;48440;51.224;22.506;2023-04-27T08:05:07;99338.47;;;16.36;31.01
62402;BME280;48440;51.224;22.506;2023-04-27T08:07:46;99348.22;;;16.42;30.68
62402;BME280;48440;51.224;22.506;2023-04-27T08:10:14;99347.66;;;16.21;30.61
62402;BME280;48440;51.224;22.506;2023-04-27T08:12:41;99335.66;;;15.88;32.25
62402;BME280;48440;51.224;22.506;2023-04-27T08:15:09;99347.66;;;15.64;31.56
62402;BME280;48440;51.224;22.506;2023-04-27T08:17:37;99348.78;;;15.91;32.99
62402;BME280;48440;51.224;22.506;2023-04-27T08:20:09;99346.78;;;16.26;33.43
62402;BME280;48440;51.224;22.506;2023-04-27T08:22:38;99346.94;;;16.58;32.74
62402;BME280;48440;51.224;22.506;2023-04-27T08:25:13;99349.41;;;16.84;31.12
62402;BME280;48440;51.224;22.506;2023-04-27T08:27:53;99350.16;;;16.42;29.14
62402;BME280;48440;51.224;22.506;2023-04-27T08:30:37;99345.16;;;16.73;30.21
62402;BME280;48440;51.224;22.506;2023-04-27T08:33:16;99359.13;;;16.71;30.74
62402;BME280;48440;51.224;22.506;2023-04-27T08:35:49;99349.81;;;16.72;31.42
62402;BME280;48440;51.224;22.506;2023-04-27T08:38:25;99355.09;;;16.87;30.58
62402;BME280;48440;51.224;22.506;2023-04-27T08:41:09;99351.31;;;17.21;33.12
62402;BME280;48440;51.224;22.506;2023-04-27T08:43:39;99356.00;;;17.02;30.55
62402;BME280;48440;51.224;22.506;2023-04-27T08:46:09;99359.44;;;16.70;30.91
62402;BME280;48440;51.224;22.506;2023-04-27T08:48:46;99357.72;;;16.02;30.83
62402;BME280;48440;51.224;22.506;2023-04-27T08:51:18;99351.53;;;16.15;31.06
62402;BME280;48440;51.224;22.506;2023-04-27T08:53:54;99347.81;;;16.54;31.34
62402;BME280;48440;51.224;22.506;2023-04-27T08:56:26;99348.81;;;16.39;30.24
62402;BME280;48440;51.224;22.506;2023-04-27T08:58:56;99350.16;;;15.89;30.39
62402;BME280;48440;51.224;22.506;2023-04-27T09:01:32;99353.19;;;15.58;30.39
62402;BME280;48440;51.224;22.506;2023-04-27T09:03:59;99349.94;;;15.56;31.75
62402;BME280;48440;51.224;22.506;2023-04-27T09:06:34;99346.97;;;15.43;32.57
62402;BME280;48440;51.224;22.506;2023-04-27T09:09:01;99343.66;;;15.85;32.50
62402;BME280;48440;51.224;22.506;2023-04-27T09:11:38;99336.09;;;15.72;31.98
62402;BME280;48440;51.224;22.506;2023-04-27T09:14:20;99345.44;;;15.32;31.08
62402;BME280;48440;51.224;22.506;2023-04-27T09:16:57;99329.53;;;15.73;31.58
62402;BME280;48440;51.224;22.506;2023-04-27T09:19:29;99330.59;;;15.77;31.75
62402;BME280;48440;51.224;22.506;2023-04-27T09:22:09;99323.28;;;15.67;31.08
62402;BME280;48440;51.224;22.506;2023-04-27T09:24:50;99326.88;;;15.63;31.18
62402;BME280;48440;51.224;22.506;2023-04-27T09:27:20;99343.63;;;15.17;31.84
62402;BME280;48440;51.224;22.506;2023-04-27T09:29:46;99338.44;;;14.66;32.82
62402;BME280;48440;51.224;22.506;2023-04-27T09:32:17;99329.84;;;14.23;33.36
62402;BME280;48440;51.224;22.506;2023-04-27T09:34:45;99337.28;;;14.03;33.11
62402;BME280;48440;51.224;22.506;2023-04-27T09:37:15;99328.97;;;14.33;33.32
62402;BME280;48440;51.224;22.506;2023-04-27T09:39:52;99322.63;;;14.63;33.47
62402;BME280;48440;51.224;22.506;2023-04-27T09:42:23;99326.44;;;15.11;32.92
62402;BME280;48440;51.224;22.506;2023-04-27T09:44:51;99317.94;;;15.52;31.95
62402;BME280;48440;51.224;22.506;2023-04-27T09:47:21;99316.47;;;15.93;31.57
62402;BME280;48440;51.224;22.506;2023-04-27T09:49:49;99320.50;;;16.25;31.64
62402;BME280;48440;51.224;22.506;2023-04-27T09:52:19;99313.59;;;16.33;32.36
62402;BME280;48440;51.224;22.506;2023-04-27T09:54:57;99321.94;;;15.93;33.50
62402;BME280;48440;51.224;22.506;2023-04-27T10:00:39;99317.59;;;16.16;31.82
62402;BME280;48440;51.224;22.506;2023-04-27T10:09:14;99310.75;;;16.14;30.30
62402;BME280;48440;51.224;22.506;2023-04-27T10:11:42;99298.84;;;16.05;31.22
62402;BME280;48440;51.224;22.506;2023-04-27T10:14:16;99297.38;;;16.12;31.01
62402;BME280;48440;51.224;22.506;2023-04-27T10:16:53;99307.19;;;15.89;31.56
62402;BME280;48440;51.224;22.506;2023-04-27T10:19:20;99302.50;;;15.32;31.18
62402;BME280;48440;51.224;22.506;2023-04-27T10:21:55;99303.72;;;14.72;32.53
62402;BME280;48440;51.224;22.506;2023-04-27T10:24:54;99313.16;;;14.35;32.44
62402;BME280;48440;51.224;22.506;2023-04-27T10:27:20;99309.69;;;14.14;33.11
62402;BME280;48440;51.224;22.506;2023-04-27T10:29:47;99301.81;;;14.03;33.99
62402;BME280;48440;51.224;22.506;2023-04-27T10:32:22;99308.91;;;13.99;34.51
62402;BME280;48440;51.224;22.506;2023-04-27T10:35:01;99310.56;;;13.95;35.73
62402;BME280;48440;51.224;22.506;2023-04-27T10:37:39;99312.06;;;14.46;35.33
62402;BME280;48440;51.224;22.506;2023-04-27T10:40:09;99313.44;;;14.93;34.93
62402;BME280;48440;51.224;22.506;2023-04-27T10:42:41;99306.66;;;15.24;34.99
62402;BME280;48440;51.224;22.506;2023-04-27T10:45:08;99306.81;;;15.38;32.77
62402;BME280;48440;51.224;22.506;2023-04-27T10:47:39;99296.88;;;15.52;32.50
62402;BME280;48440;51.224;22.506;2023-04-27T10:50:07;99306.06;;;15.33;34.13
62402;BME280;48440;51.224;22.506;2023-04-27T10:52:42;99307.41;;;14.96;32.29
62402;BME280;48440;51.224;22.506;2023-04-27T10:55:19;99314.66;;;14.72;32.03
62402;BME280;48440;51.224;22.506;2023-04-27T11:00:13;99319.78;;;14.14;34.33
62402;BME280;48440;51.224;22.506;2023-04-27T11:02:40;99317.06;;;14.04;34.89
62402;BME280;48440;51.224;22.506;2023-04-27T11:05:16;99318.19;;;13.92;34.23
62402;BME280;48440;51.224;22.506;2023-04-27T11:07:42;99315.69;;;14.06;33.39
62402;BME280;48440;51.224;22.506;2023-04-27T11:10:09;99318.88;;;14.34;34.23
62402;BME280;48440;51.224;22.506;2023-04-27T11:12:35;99322.97;;;14.51;34.27
62402;BME280;48440;51.224;22.506;2023-04-27T11:15:01;99320.25;;;14.46;33.33
62402;BME280;48440;51.224;22.506;2023-04-27T11:17:28;99320.56;;;14.24;34.51
62402;BME280;48440;51.224;22.506;2023-04-27T11:19:54;99322.25;;;14.10;35.11
62402;BME280;48440;51.224;22.506;2023-04-27T11:22:20;99322.50;;;14.09;33.99
62402;BME280;48440;51.224;22.506;2023-04-27T11:24:50;99322.81;;;13.97;32.41
62402;BME280;48440;51.224;22.506;2023-04-27T11:27:16;99329.09;;;14.03;34.30
62402;BME280;48440;51.224;22.506;2023-04-27T11:29:43;99311.84;;;14.22;34.90
62402;BME280;48440;51.224;22.506;2023-04-27T11:32:21;99321.31;;;14.40;36.03
62402;BME280;48440;51.224;22.506;2023-04-27T11:34:51;99322.69;;;14.33;36.17
62402;BME280;48440;51.224;22.506;2023-04-27T11:37:24;99325.78;;;14.16;35.34
62402;BME280;48440;51.224;22.506;2023-04-27T11:39:51;99320.38;;;14.01;33.85
62402;BME280;48440;51.224;22.506;2023-04-27T11:42:23;99322.03;;;13.86;34.83
62402;BME280;48440;51.224;22.506;2023-04-27T11:44:54;99326.94;;;13.79;35.38
62402;BME280;48440;51.224;22.506;2023-04-27T11:47:25;99324.19;;;13.89;34.73
62402;BME280;48440;51.224;22.506;2023-04-27T11:49:57;99327.97;;;14.04;34.25
62402;BME280;48440;51.224;22.506;2023-04-27T11:52:31;99320.31;;;14.11;32.58
62402;BME280;48440;51.224;22.506;2023-04-27T11:54:58;99325.78;;;14.06;33.29
62402;BME280;48440;51.224;22.506;2023-04-27T11:57:30;99332.34;;;14.10;33.25
62402;BME280;48440;51.224;22.506;2023-04-27T11:59:57;99324.41;;;14.08;33.97
62402;BME280;48440;51.224;22.506;2023-04-27T12:02:29;99323.63;;;14.03;33.15
62402;BME280;48440;51.224;22.506;2023-04-27T12:04:57;99324.72;;;14.02;34.63
62402;BME280;48440;51.224;22.506;2023-04-27T12:07:23;99321.69;;;14.08;35.14
62402;BME280;48440;51.224;22.506;2023-04-27T12:09:49;99316.50;;;14.17;35.47
62402;BME280;48440;51.224;22.506;2023-04-27T12:12:15;99310.22;;;14.16;33.66
62402;BME280;48440;51.224;22.506;2023-04-27T12:14:46;99323.09;;;13.96;33.76
62402;BME280;48440;51.224;22.506;2023-04-27T12:17:15;99325.31;;;13.73;33.39
62402;BME280;48440;51.224;22.506;2023-04-27T12:19:45;99331.03;;;13.56;33.71
62402;BME280;48440;51.224;22.506;2023-04-27T12:22:11;99336.50;;;13.41;33.72
62402;BME280;48440;51.224;22.506;2023-04-27T12:24:37;99331.31;;;13.35;35.06
62402;BME280;48440;51.224;22.506;2023-04-27T12:27:03;99332.13;;;13.30;34.86
62402;BME280;48440;51.224;22.506;2023-04-27T12:29:29;99326.13;;;13.28;34.02
62402;BME280;48440;51.224;22.506;2023-04-27T12:31:57;99330.78;;;13.33;34.72
62402;BME280;48440;51.224;22.506;2023-04-27T12:34:23;99329.69;;;13.39;35.02
62402;BME280;48440;51.224;22.506;2023-04-27T12:36:49;99327.81;;;13.49;35.34
62402;BME280;48440;51.224;22.506;2023-04-27T12:39:17;99331.03;;;13.51;36.00
62402;BME280;48440;51.224;22.506;2023-04-27T12:41:45;99330.50;;;13.54;35.85
62402;BME280;48440;51.224;22.506;2023-04-27T12:44:11;99324.00;;;13.50;35.98
62402;BME280;48440;51.224;22.506;2023-04-27T12:46:38;99325.34;;;13.43;36.73
62402;BME280;48440;51.224;22.506;2023-04-27T12:49:04;99332.41;;;13.34;36.16
62402;BME280;48440;51.224;22.506;2023-04-27T12:51:32;99313.59;;;13.27;36.47
62402;BME280;48440;51.224;22.506;2023-04-27T12:53:59;99327.50;;;13.15;37.60
62402;BME280;48440;51.224;22.506;2023-04-27T12:56:26;99330.19;;;13.10;36.18
62402;BME280;48440;51.224;22.506;2023-04-27T12:58:59;99329.09;;;12.96;36.60
62402;BME280;48440;51.224;22.506;2023-04-27T13:01:27;99327.44;;;12.95;37.68
62402;BME280;48440;51.224;22.506;2023-04-27T13:04:07;99337.19;;;12.81;36.81
62402;BME280;48440;51.224;22.506;2023-04-27T13:12:30;99339.34;;;12.64;37.37
62402;BME280;48440;51.224;22.506;2023-04-27T13:15:00;99340.41;;;12.63;37.79
62402;BME280;48440;51.224;22.506;2023-04-27T13:17:49;99340.41;;;12.57;37.51
62402;BME280;48440;51.224;22.506;2023-04-27T13:38:30;99349.16;;;12.70;38.72
62402;BME280;48440;51.224;22.506;2023-04-27T13:52:34;99355.16;;;12.72;36.12
62402;BME280;48440;51.224;22.506;2023-04-27T13:55:06;99358.69;;;12.77;36.80
62402;BME280;48440;51.224;22.506;2023-04-27T13:58:06;99357.38;;;12.85;36.88
62402;BME280;48440;51.224;22.506;2023-04-27T14:00:38;99344.06;;;12.94;36.83
62402;BME280;48440;51.224;22.506;2023-04-27T14:06:55;99346.50;;;12.90;37.03
62402;BME280;48440;51.224;22.506;2023-04-27T14:10:05;99355.69;;;12.74;39.21
62402;BME280;48440;51.224;22.506;2023-04-27T14:20:43;99375.97;;;12.36;40.64
62402;BME280;48440;51.224;22.506;2023-04-27T14:23:23;99371.53;;;12.24;41.06
62402;BME280;48440;51.224;22.506;2023-04-27T14:26:19;99371.53;;;12.19;41.64
62402;BME280;48440;51.224;22.506;2023-04-27T14:41:12;99379.13;;;12.22;41.45